sensor_id;sensor_type;location;lat;lon;timestamp;pressure;altitude;pressure_sealevel;temperature;humidity
9077;BME280;4574;51.072;17.174;2023-03-14T00:00:12;98447.75;;;10.63;100.00
9077;BME280;4574;51.072;17.174;2023-03-14T00:02:42;98452.19;;;10.63;100.00
9077;BME280;4574;51.072;17.174;2023-03-14T00:05:11;98442.25;;;10.64;100.00
9077;BME280;4574;51.072;17.174;2023-03-14T00:07:41;98417.38;;;10.59;100.00
9077;BME280;4574;51.072;17.174;2023-03-14T00:10:13;98404.16;;;10.59;100.00
9077;BME280;4574;51.072;17.174;2023-03-14T00:12:42;98416.66;;;10.71;100.00
9077;BME280;4574;51.072;17.174;2023-03-14T00:15:12;98408.28;;;10.68;100.00
9077;BME280;4574;51.072;17.174;2023-03-14T00:17:43;98407.03;;;10.64;100.00
9077;BME280;4574;51.072;17.174;2023-03-14T00:20:12;98421.16;;;10.71;100.00
9077;BME280;4574;51.072;17.174;2023-03-14T00:22:42;98404.94;;;10.60;100.00
9077;BME280;4574;51.072;17.174;2023-03-14T00:25:11;98418.63;;;10.63;100.00
9077;BME280;4574;51.072;17.174;2023-03-14T00:27:40;98412.47;;;10.56;100.00
9077;BME280;4574;51.072;17.174;2023-03-14T00:30:10;98402.16;;;10.40;100.00
9077;BME280;4574;51.072;17.174;2023-03-14T00:32:39;98414.63;;;10.46;100.00
9077;BME280;4574;51.072;17.174;2023-03-14T00:35:08;98409.97;;;10.48;100.00
9077;BME280;4574;51.072;17.174;2023-03-14T00:37:37;98411.59;;;10.49;100.00
9077;BME280;4574;51.072;17.174;2023-03-14T00:40:11;98405.84;;;10.46;100.00
9077;BME280;4574;51.072;17.174;2023-03-14T00:42:40;98406.44;;;10.41;100.00
9077;BME280;4574;51.072;17.174;2023-03-14T00:45:09;98397.25;;;10.37;100.00
9077;BME280;4574;51.072;17.174;2023-03-14T00:47:38;98390.25;;;10.30;100.00
9077;BME280;4574;51.072;17.174;2023-03-14T00:50:08;98408.81;;;10.36;100.00
9077;BME280;4574;51.072;17.174;2023-03-14T00:52:38;98421.03;;;10.37;100.00
9077;BME280;4574;51.072;17.174;2023-03-14T00:55:08;98408.81;;;10.36;100.00
9077;BME280;4574;51.072;17.174;2023-03-14T00:57:37;98400.66;;;10.31;100.00
9077;BME280;4574;51.072;17.174;2023-03-14T01:00:07;98412.66;;;10.34;100.00
9077;BME280;4574;51.072;17.174;2023-03-14T01:02:38;98409.38;;;10.32;100.00
9077;BME280;4574;51.072;17.174;2023-03-14T01:05:08;98440.94;;;10.33;100.00
9077;BME280;4574;51.072;17.174;2023-03-14T01:07:41;98489.38;;;10.19;100.00
9077;BME280;4574;51.072;17.174;2023-03-14T01:10:12;98465.63;;;10.05;100.00
9077;BME280;4574;51.072;17.174;2023-03-14T01:12:42;98459.75;;;10.09;100.00
9077;BME280;4574;51.072;17.174;2023-03-14T01:15:11;98459.41;;;10.12;100.00
9077;BME280;4574;51.072;17.174;2023-03-14T01:17:40;98464.94;;;10.17;100.00
9077;BME280;4574;51.072;17.174;2023-03-14T01:20:11;98464.13;;;10.17;100.00
9077;BME280;4574;51.072;17.174;2023-03-14T01:22:40;98440.25;;;10.10;100.00
9077;BME280;4574;51.072;17.174;2023-03-14T01:25:15;98449.13;;;10.03;100.00
9077;BME280;4574;51.072;17.174;2023-03-14T01:27:45;98445.66;;;10.02;100.00
9077;BME280;4574;51.072;17.174;2023-03-14T01:30:14;98429.88;;;9.94;100.00
9077;BME280;4574;51.072;17.174;2023-03-14T01:32:43;98421.69;;;9.89;100.00
9077;BME280;4574;51.072;17.174;2023-03-14T01:35:12;98412.75;;;9.90;100.00
9077;BME280;4574;51.072;17.174;2023-03-14T01:37:41;98419.31;;;9.94;100.00
9077;BME280;4574;51.072;17.174;2023-03-14T01:40:12;98418.94;;;9.97;100.00
9077;BME280;4574;51.072;17.174;2023-03-14T01:42:46;98400.72;;;10.02;100.00
9077;BME280;4574;51.072;17.174;2023-03-14T01:48:19;98356.88;;;10.08;100.00
9077;BME280;4574;51.072;17.174;2023-03-14T01:50:48;98358.31;;;10.10;100.00
9077;BME280;4574;51.072;17.174;2023-03-14T01:53:17;98376.63;;;10.12;100.00
9077;BME280;4574;51.072;17.174;2023-03-14T01:55:52;98385.38;;;10.12;100.00
9077;BME280;4574;51.072;17.174;2023-03-14T01:58:25;98354.16;;;10.01;100.00
9077;BME280;4574;51.072;17.174;2023-03-14T02:00:57;98347.97;;;10.15;100.00
9077;BME280;4574;51.072;17.174;2023-03-14T02:03:27;98349.63;;;10.16;100.00
9077;BME280;4574;51.072;17.174;2023-03-14T02:06:01;98340.88;;;10.16;100.00
9077;BME280;4574;51.072;17.174;2023-03-14T02:08:33;98322.75;;;10.13;100.00
9077;BME280;4574;51.072;17.174;2023-03-14T02:11:05;98310.09;;;10.08;100.00
9077;BME280;4574;51.072;17.174;2023-03-14T02:13:35;98305.31;;;10.18;100.00
9077;BME280;4574;51.072;17.174;2023-03-14T02:16:04;98306.31;;;10.17;100.00
9077;BME280;4574;51.072;17.174;2023-03-14T02:18:33;98287.81;;;10.17;100.00
9077;BME280;4574;51.072;17.174;2023-03-14T02:21:09;98303.50;;;10.19;100.00
9077;BME280;4574;51.072;17.174;2023-03-14T02:23:48;98299.41;;;10.16;100.00
9077;BME280;4574;51.072;17.174;2023-03-14T02:26:23;98294.72;;;10.18;100.00
9077;BME280;4574;51.072;17.174;2023-03-14T02:28:55;98295.63;;;10.25;100.00
9077;BME280;4574;51.072;17.174;2023-03-14T02:31:24;98286.72;;;10.33;100.00
9077;BME280;4574;51.072;17.174;2023-03-14T02:33:53;98260.03;;;10.28;100.00
9077;BME280;4574;51.072;17.174;2023-03-14T02:36:24;98275.81;;;10.42;100.00
9077;BME280;4574;51.072;17.174;2023-03-14T02:38:56;98263.22;;;10.44;100.00
9077;BME280;4574;51.072;17.174;2023-03-14T02:41:30;98274.03;;;10.49;100.00
9077;BME280;4574;51.072;17.174;2023-03-14T02:44:00;98278.31;;;10.50;100.00
9077;BME280;4574;51.072;17.174;2023-03-14T02:46:30;98250.88;;;10.51;100.00
9077;BME280;4574;51.072;17.174;2023-03-14T02:49:02;98246.19;;;10.53;100.00
9077;BME280;4574;51.072;17.174;2023-03-14T02:51:32;98254.16;;;10.60;100.00
9077;BME280;4574;51.072;17.174;2023-03-14T02:54:01;98259.25;;;10.61;100.00
9077;BME280;4574;51.072;17.174;2023-03-14T02:56:30;98265.72;;;10.52;100.00
9077;BME280;4574;51.072;17.174;2023-03-14T02:59:02;98251.47;;;10.53;100.00
9077;BME280;4574;51.072;17.174;2023-03-14T03:01:31;98240.78;;;10.67;100.00
9077;BME280;4574;51.072;17.174;2023-03-14T03:03:59;98248.88;;;11.00;100.00
9077;BME280;4574;51.072;17.174;2023-03-14T03:06:28;98223.69;;;11.10;100.00
9077;BME280;4574;51.072;17.174;2023-03-14T03:08:56;98213.94;;;11.17;100.00
9077;BME280;4574;51.072;17.174;2023-03-14T03:11:25;98215.19;;;11.28;100.00
9077;BME280;4574;51.072;17.174;2023-03-14T03:13:54;98204.41;;;11.36;100.00
9077;BME280;4574;51.072;17.174;2023-03-14T03:16:24;98198.09;;;11.37;100.00
9077;BME280;4574;51.072;17.174;2023-03-14T03:18:53;98190.34;;;11.42;100.00
9077;BME280;4574;51.072;17.174;2023-03-14T03:21:22;98185.09;;;11.55;99.15
9077;BME280;4574;51.072;17.174;2023-03-14T03:23:51;98169.41;;;11.60;98.37
9077;BME280;4574;51.072;17.174;2023-03-14T03:26:19;98174.94;;;11.71;97.56
9077;BME280;4574;51.072;17.174;2023-03-14T03:28:50;98178.59;;;11.83;96.86
9077;BME280;4574;51.072;17.174;2023-03-14T03:31:19;98169.41;;;11.86;96.82
9077;BME280;4574;51.072;17.174;2023-03-14T03:33:49;98160.69;;;11.92;95.92
9077;BME280;4574;51.072;17.174;2023-03-14T03:36:20;98161.91;;;11.96;95.66
9077;BME280;4574;51.072;17.174;2023-03-14T03:38:49;98171.47;;;12.03;95.59
9077;BME280;4574;51.072;17.174;2023-03-14T03:41:18;98168.63;;;12.04;94.84
9077;BME280;4574;51.072;17.174;2023-03-14T03:43:47;98172.91;;;12.05;94.97
9077;BME280;4574;51.072;17.174;2023-03-14T03:46:15;98161.50;;;11.99;95.86
9077;BME280;4574;51.072;17.174;2023-03-14T03:48:44;98147.22;;;12.00;96.35
9077;BME280;4574;51.072;17.174;2023-03-14T03:51:14;98130.69;;;11.98;95.81
9077;BME280;4574;51.072;17.174;2023-03-14T03:53:43;98119.06;;;11.86;96.22
9077;BME280;4574;51.072;17.174;2023-03-14T03:56:12;98112.34;;;11.83;97.10
9077;BME280;4574;51.072;17.174;2023-03-14T03:58:40;98111.53;;;11.76;96.29
9077;BME280;4574;51.072;17.174;2023-03-14T04:01:10;98128.84;;;11.79;96.71
9077;BME280;4574;51.072;17.174;2023-03-14T04:03:39;98139.44;;;11.79;97.13
9077;BME280;4574;51.072;17.174;2023-03-14T04:06:09;98120.28;;;11.77;97.01
9077;BME280;4574;51.072;17.174;2023-03-14T04:08:41;98130.09;;;11.76;97.72
9077;BME280;4574;51.072;17.174;2023-03-14T04:11:10;98135.38;;;11.76;97.63
9077;BME280;4574;51.072;17.174;2023-03-14T04:13:39;98133.75;;;11.75;98.03
9077;BME280;4574;51.072;17.174;2023-03-14T04:16:13;98118.66;;;11.76;98.13
9077;BME280;4574;51.072;17.174;2023-03-14T04:18:43;98123.56;;;11.72;98.62
9077;BME280;4574;51.072;17.174;2023-03-14T04:21:11;98123.34;;;11.74;98.51
9077;BME280;4574;51.072;17.174;2023-03-14T04:23:41;98102.56;;;11.71;99.91
9077;BME280;4574;51.072;17.174;2023-03-14T04:26:10;98103.97;;;11.67;100.00
9077;BME280;4574;51.072;17.174;2023-03-14T04:28:38;98101.72;;;11.51;100.00
9077;BME280;4574;51.072;17.174;2023-03-14T04:31:08;98112.13;;;11.59;100.00
9077;BME280;4574;51.072;17.174;2023-03-14T04:33:36;98105.81;;;11.60;100.00
9077;BME280;4574;51.072;17.174;2023-03-14T04:36:07;98110.09;;;11.61;100.00
9077;BME280;4574;51.072;17.174;2023-03-14T04:38:36;98086.44;;;11.66;100.00
9077;BME280;4574;51.072;17.174;2023-03-14T04:41:06;98075.03;;;11.72;99.29
9077;BME280;4574;51.072;17.174;2023-03-14T04:43:35;98073.81;;;11.74;99.69
9077;BME280;4574;51.072;17.174;2023-03-14T04:46:04;98076.84;;;11.78;98.89
9077;BME280;4574;51.072;17.174;2023-03-14T04:48:33;98059.94;;;11.79;99.01
9077;BME280;4574;51.072;17.174;2023-03-14T04:51:02;98054.84;;;11.71;98.57
9077;BME280;4574;51.072;17.174;2023-03-14T04:53:30;98081.75;;;11.81;99.28
9077;BME280;4574;51.072;17.174;2023-03-14T04:55:59;98103.78;;;11.81;99.03
9077;BME280;4574;51.072;17.174;2023-03-14T04:58:29;98087.88;;;11.75;99.41
9077;BME280;4574;51.072;17.174;2023-03-14T05:01:02;98069.31;;;11.75;99.22
9077;BME280;4574;51.072;17.174;2023-03-14T05:03:30;98061.78;;;11.72;99.45
9077;BME280;4574;51.072;17.174;2023-03-14T05:05:59;98074.84;;;11.73;99.12
9077;BME280;4574;51.072;17.174;2023-03-14T05:08:27;98087.88;;;11.75;99.54
9077;BME280;4574;51.072;17.174;2023-03-14T05:10:57;98116.63;;;11.78;98.91
9077;BME280;4574;51.072;17.174;2023-03-14T05:13:26;98114.38;;;11.75;98.79
9077;BME280;4574;51.072;17.174;2023-03-14T05:16:04;98114.59;;;11.73;99.14
9077;BME280;4574;51.072;17.174;2023-03-14T05:18:32;98090.94;;;11.72;99.73
9077;BME280;4574;51.072;17.174;2023-03-14T05:21:01;98080.31;;;11.72;99.66
9077;BME280;4574;51.072;17.174;2023-03-14T05:23:30;98052.41;;;11.63;100.00
9077;BME280;4574;51.072;17.174;2023-03-14T05:25:59;98058.31;;;11.65;100.00
9077;BME280;4574;51.072;17.174;2023-03-14T05:28:28;98067.69;;;11.61;100.00
9077;BME280;4574;51.072;17.174;2023-03-14T05:30:58;98057.94;;;11.55;100.00
9077;BME280;4574;51.072;17.174;2023-03-14T05:33:27;98053.84;;;11.59;100.00
9077;BME280;4574;51.072;17.174;2023-03-14T05:35:55;98044.47;;;11.63;100.00
9077;BME280;4574;51.072;17.174;2023-03-14T05:38:24;98041.44;;;11.59;100.00
9077;BME280;4574;51.072;17.174;2023-03-14T05:40:53;98024.91;;;11.38;100.00
9077;BME280;4574;51.072;17.174;2023-03-14T05:43:21;98046.09;;;11.44;100.00
9077;BME280;4574;51.072;17.174;2023-03-14T05:45:50;98055.88;;;11.31;100.00
9077;BME280;4574;51.072;17.174;2023-03-14T05:48:21;98061.56;;;11.28;100.00
9077;BME280;4574;51.072;17.174;2023-03-14T05:50:54;98069.50;;;11.28;100.00
9077;BME280;4574;51.072;17.174;2023-03-14T05:53:24;98068.31;;;11.17;100.00
9077;BME280;4574;51.072;17.174;2023-03-14T05:55:54;98076.84;;;11.26;100.00
9077;BME280;4574;51.072;17.174;2023-03-14T05:58:24;98081.13;;;11.27;100.00
9077;BME280;4574;51.072;17.174;2023-03-14T06:00:53;98065.25;;;11.20;100.00
9077;BME280;4574;51.072;17.174;2023-03-14T06:03:23;98066.06;;;11.27;100.00
9077;BME280;4574;51.072;17.174;2023-03-14T06:05:55;98057.50;;;11.25;100.00
9077;BME280;4574;51.072;17.174;2023-03-14T06:08:24;98064.00;;;11.23;100.00
9077;BME280;4574;51.072;17.174;2023-03-14T06:10:52;98096.81;;;11.35;100.00
9077;BME280;4574;51.072;17.174;2023-03-14T06:13:21;98081.13;;;11.27;100.00
9077;BME280;4574;51.072;17.174;2023-03-14T06:15:49;98065.47;;;11.25;100.00
9077;BME280;4574;51.072;17.174;2023-03-14T06:18:18;98060.16;;;11.32;100.00
9077;BME280;4574;51.072;17.174;2023-03-14T06:20:48;98065.47;;;11.25;100.00
9077;BME280;4574;51.072;17.174;2023-03-14T06:23:17;98070.53;;;11.27;100.00
9077;BME280;4574;51.072;17.174;2023-03-14T06:25:45;98077.28;;;11.29;100.00
9077;BME280;4574;51.072;17.174;2023-03-14T06:28:15;98076.25;;;11.30;100.00
9077;BME280;4574;51.072;17.174;2023-03-14T06:30:43;98096.19;;;11.33;100.00
9077;BME280;4574;51.072;17.174;2023-03-14T06:33:12;98095.41;;;11.32;100.00
9077;BME280;4574;51.072;17.174;2023-03-14T06:35:40;98115.56;;;11.40;100.00
9077;BME280;4574;51.072;17.174;2023-03-14T06:38:10;98103.53;;;11.44;100.00
9077;BME280;4574;51.072;17.174;2023-03-14T06:40:39;98102.34;;;11.46;100.00
9077;BME280;4574;51.072;17.174;2023-03-14T06:43:07;98096.22;;;11.39;100.00
9077;BME280;4574;51.072;17.174;2023-03-14T06:45:36;98109.25;;;11.47;100.00
9077;BME280;4574;51.072;17.174;2023-03-14T06:48:05;98099.88;;;11.45;100.00
9077;BME280;4574;51.072;17.174;2023-03-14T06:50:34;98102.72;;;11.50;100.00
9077;BME280;4574;51.072;17.174;2023-03-14T06:53:03;98106.81;;;11.52;100.00
9077;BME280;4574;51.072;17.174;2023-03-14T06:55:33;98100.69;;;11.52;100.00
9077;BME280;4574;51.072;17.174;2023-03-14T06:58:01;98105.44;;;11.56;100.00
9077;BME280;4574;51.072;17.174;2023-03-14T07:00:30;98109.25;;;11.54;100.00
9077;BME280;4574;51.072;17.174;2023-03-14T07:02:59;98112.13;;;11.52;100.00
9077;BME280;4574;51.072;17.174;2023-03-14T07:05:28;98110.72;;;11.56;100.00
9077;BME280;4574;51.072;17.174;2023-03-14T07:07:57;98099.28;;;11.56;100.00
9077;BME280;4574;51.072;17.174;2023-03-14T07:10:27;98100.31;;;11.55;100.00
9077;BME280;4574;51.072;17.174;2023-03-14T07:12:57;98089.72;;;11.55;100.00
9077;BME280;4574;51.072;17.174;2023-03-14T07:15:25;98111.94;;;11.60;100.00
9077;BME280;4574;51.072;17.174;2023-03-14T07:17:54;98120.69;;;11.61;100.00
9077;BME280;4574;51.072;17.174;2023-03-14T07:20:23;98132.94;;;11.62;100.00
9077;BME280;4574;51.072;17.174;2023-03-14T07:22:53;98141.50;;;11.64;100.00
9077;BME280;4574;51.072;17.174;2023-03-14T07:25:33;98143.13;;;11.65;100.00
9077;BME280;4574;51.072;17.174;2023-03-14T07:28:02;98163.91;;;11.68;100.00
9077;BME280;4574;51.072;17.174;2023-03-14T07:30:31;98142.31;;;11.64;100.00
9077;BME280;4574;51.072;17.174;2023-03-14T07:33:00;98153.94;;;11.63;100.00
9077;BME280;4574;51.072;17.174;2023-03-14T07:35:28;98144.34;;;11.62;100.00
9077;BME280;4574;51.072;17.174;2023-03-14T07:37:57;98144.75;;;11.59;100.00
9077;BME280;4574;51.072;17.174;2023-03-14T07:40:26;98140.66;;;11.57;100.00
9077;BME280;4574;51.072;17.174;2023-03-14T07:42:54;98136.38;;;11.56;100.00
9077;BME280;4574;51.072;17.174;2023-03-14T07:45:24;98127.81;;;11.54;100.00
9077;BME280;4574;51.072;17.174;2023-03-14T07:47:54;98109.66;;;11.51;100.00
9077;BME280;4574;51.072;17.174;2023-03-14T07:50:24;98114.34;;;11.49;100.00
9077;BME280;4574;51.072;17.174;2023-03-14T07:52:53;98133.72;;;11.49;100.00
9077;BME280;4574;51.072;17.174;2023-03-14T07:55:22;98130.66;;;11.46;100.00
9077;BME280;4574;51.072;17.174;2023-03-14T07:57:51;98128.00;;;11.46;100.00
9077;BME280;4574;51.072;17.174;2023-03-14T08:00:20;98115.78;;;11.45;100.00
9077;BME280;4574;51.072;17.174;2023-03-14T08:02:50;98097.03;;;11.33;100.00
9077;BME280;4574;51.072;17.174;2023-03-14T08:05:20;98114.13;;;11.31;100.00
9077;BME280;4574;51.072;17.174;2023-03-14T08:07:49;98115.34;;;11.35;100.00
9077;BME280;4574;51.072;17.174;2023-03-14T08:10:17;98103.75;;;11.36;100.00
9077;BME280;4574;51.072;17.174;2023-03-14T08:12:54;98100.06;;;11.37;100.00
9077;BME280;4574;51.072;17.174;2023-03-14T08:15:24;98111.28;;;11.32;100.00
9077;BME280;4574;51.072;17.174;2023-03-14T08:17:55;98110.88;;;11.29;100.00
9077;BME280;4574;51.072;17.174;2023-03-14T08:20:27;98096.19;;;11.20;100.00
9077;BME280;4574;51.072;17.174;2023-03-14T08:22:56;98099.84;;;11.19;100.00
9077;BME280;4574;51.072;17.174;2023-03-14T08:25:27;98114.53;;;11.21;100.00
9077;BME280;4574;51.072;17.174;2023-03-14T08:27:56;98127.75;;;11.15;100.00
9077;BME280;4574;51.072;17.174;2023-03-14T08:30:25;98129.00;;;11.12;100.00
9077;BME280;4574;51.072;17.174;2023-03-14T08:32:56;98127.13;;;11.00;100.00
9077;BME280;4574;51.072;17.174;2023-03-14T08:35:25;98148.28;;;11.00;100.00
9077;BME280;4574;51.072;17.174;2023-03-14T08:37:54;98143.41;;;10.97;100.00
9077;BME280;4574;51.072;17.174;2023-03-14T08:40:24;98144.59;;;10.88;100.00
9077;BME280;4574;51.072;17.174;2023-03-14T08:42:53;98153.09;;;10.77;100.00
9077;BME280;4574;51.072;17.174;2023-03-14T08:45:21;98170.56;;;10.71;100.00
9077;BME280;4574;51.072;17.174;2023-03-14T08:47:52;98180.34;;;10.71;100.00
9077;BME280;4574;51.072;17.174;2023-03-14T08:50:22;98188.69;;;10.68;100.00
9077;BME280;4574;51.072;17.174;2023-03-14T08:52:51;98180.31;;;10.64;100.00
9077;BME280;4574;51.072;17.174;2023-03-14T08:55:20;98172.97;;;10.60;100.00
9077;BME280;4574;51.072;17.174;2023-03-14T08:57:48;98179.28;;;10.59;100.00
9077;BME280;4574;51.072;17.174;2023-03-14T09:00:18;98176.63;;;10.59;100.00
9077;BME280;4574;51.072;17.174;2023-03-14T09:02:47;98155.81;;;10.50;100.00
9077;BME280;4574;51.072;17.174;2023-03-14T09:05:16;98161.38;;;10.61;100.00
9077;BME280;4574;51.072;17.174;2023-03-14T09:07:46;98166.28;;;10.64;100.00
9077;BME280;4574;51.072;17.174;2023-03-14T09:10:14;98182.38;;;10.69;100.00
9077;BME280;4574;51.072;17.174;2023-03-14T09:12:43;98158.75;;;10.61;100.00
9077;BME280;4574;51.072;17.174;2023-03-14T09:15:12;98154.91;;;10.70;100.00
9077;BME280;4574;51.072;17.174;2023-03-14T09:17:42;98165.91;;;10.73;100.00
9077;BME280;4574;51.072;17.174;2023-03-14T09:20:11;98160.81;;;10.72;100.00
9077;BME280;4574;51.072;17.174;2023-03-14T09:22:41;98162.06;;;10.76;100.00
9077;BME280;4574;51.072;17.174;2023-03-14T09:25:11;98150.63;;;10.75;100.00
9077;BME280;4574;51.072;17.174;2023-03-14T09:27:40;98151.38;;;11.10;100.00
9077;BME280;4574;51.072;17.174;2023-03-14T09:30:09;98146.25;;;11.02;100.00
9077;BME280;4574;51.072;17.174;2023-03-14T09:32:38;98171.94;;;11.08;100.00
9077;BME280;4574;51.072;17.174;2023-03-14T09:35:07;98177.00;;;11.03;100.00
9077;BME280;4574;51.072;17.174;2023-03-14T09:37:36;98178.84;;;11.02;100.00
9077;BME280;4574;51.072;17.174;2023-03-14T09:40:09;98191.25;;;11.02;100.00
9077;BME280;4574;51.072;17.174;2023-03-14T09:42:42;98202.28;;;11.05;100.00
9077;BME280;4574;51.072;17.174;2023-03-14T09:45:23;98197.63;;;11.07;100.00
9077;BME280;4574;51.072;17.174;2023-03-14T09:47:53;98205.97;;;11.11;100.00
9077;BME280;4574;51.072;17.174;2023-03-14T09:50:31;98213.50;;;11.14;100.00
9077;BME280;4574;51.072;17.174;2023-03-14T09:53:03;98230.00;;;11.16;100.00
9077;BME280;4574;51.072;17.174;2023-03-14T09:55:33;98221.03;;;11.17;100.00
9077;BME280;4574;51.072;17.174;2023-03-14T09:58:10;98225.16;;;11.19;100.00
9077;BME280;4574;51.072;17.174;2023-03-14T10:00:39;98216.56;;;11.11;100.00
9077;BME280;4574;51.072;17.174;2023-03-14T10:03:21;98233.88;;;11.13;100.00
9077;BME280;4574;51.072;17.174;2023-03-14T10:05:51;98217.97;;;11.07;100.00
9077;BME280;4574;51.072;17.174;2023-03-14T10:08:19;98222.25;;;11.08;100.00
9077;BME280;4574;51.072;17.174;2023-03-14T10:10:48;98228.16;;;11.10;100.00
9077;BME280;4574;51.072;17.174;2023-03-14T10:13:20;98231.38;;;10.99;100.00
9077;BME280;4574;51.072;17.174;2023-03-14T10:15:53;98230.34;;;11.00;100.00
9077;BME280;4574;51.072;17.174;2023-03-14T10:18:23;98228.31;;;11.02;100.00
9077;BME280;4574;51.072;17.174;2023-03-14T10:21:06;98218.53;;;11.02;100.00
9077;BME280;4574;51.072;17.174;2023-03-14T10:23:35;98221.00;;;11.04;100.00
9077;BME280;4574;51.072;17.174;2023-03-14T10:26:08;98216.75;;;11.09;100.00
9077;BME280;4574;51.072;17.174;2023-03-14T10:28:44;98217.78;;;11.15;100.00
9077;BME280;4574;51.072;17.174;2023-03-14T10:31:13;98205.78;;;11.19;100.00
9077;BME280;4574;51.072;17.174;2023-03-14T10:33:58;98201.31;;;11.26;100.00
9077;BME280;4574;51.072;17.174;2023-03-14T10:36:28;98191.34;;;11.28;100.00
9077;BME280;4574;51.072;17.174;2023-03-14T10:38:58;98206.25;;;11.35;100.00
9077;BME280;4574;51.072;17.174;2023-03-14T10:41:33;98187.31;;;11.38;100.00
9077;BME280;4574;51.072;17.174;2023-03-14T10:44:05;98184.66;;;11.45;100.00
9077;BME280;4574;51.072;17.174;2023-03-14T10:46:35;98186.72;;;11.49;100.00
9077;BME280;4574;51.072;17.174;2023-03-14T10:49:05;98180.16;;;11.52;100.00
9077;BME280;4574;51.072;17.174;2023-03-14T10:51:34;98186.31;;;11.59;100.00
9077;BME280;4574;51.072;17.174;2023-03-14T10:54:11;98183.09;;;11.63;100.00
9077;BME280;4574;51.072;17.174;2023-03-14T10:56:40;98178.19;;;11.67;100.00
9077;BME280;4574;51.072;17.174;2023-03-14T10:59:15;98187.97;;;11.73;100.00
9077;BME280;4574;51.072;17.174;2023-03-14T11:01:47;98181.06;;;11.78;100.00
9077;BME280;4574;51.072;17.174;2023-03-14T11:04:32;98195.31;;;11.84;100.00
9077;BME280;4574;51.072;17.174;2023-03-14T11:07:11;98183.69;;;11.91;100.00
9077;BME280;4574;51.072;17.174;2023-03-14T11:09:47;98182.09;;;11.97;100.00
9077;BME280;4574;51.072;17.174;2023-03-14T11:12:34;98182.28;;;12.02;100.00
9077;BME280;4574;51.072;17.174;2023-03-14T11:15:11;98179.44;;;12.09;100.00
9077;BME280;4574;51.072;17.174;2023-03-14T11:17:50;98167.56;;;12.12;100.00
9077;BME280;4574;51.072;17.174;2023-03-14T11:20:34;98169.22;;;12.19;100.00
9077;BME280;4574;51.072;17.174;2023-03-14T11:23:08;98146.78;;;12.15;100.00
9077;BME280;4574;51.072;17.174;2023-03-14T11:25:44;98157.13;;;12.30;100.00
9077;BME280;4574;51.072;17.174;2023-03-14T11:28:19;98164.06;;;12.37;100.00
9077;BME280;4574;51.072;17.174;2023-03-14T11:30:54;98154.03;;;12.46;100.00
9077;BME280;4574;51.072;17.174;2023-03-14T11:33:27;98151.56;;;12.51;100.00
9077;BME280;4574;51.072;17.174;2023-03-14T11:36:01;98147.47;;;12.55;100.00
9077;BME280;4574;51.072;17.174;2023-03-14T11:38:37;98148.69;;;12.59;100.00
9077;BME280;4574;51.072;17.174;2023-03-14T11:41:11;98142.16;;;12.61;100.00
9077;BME280;4574;51.072;17.174;2023-03-14T11:43:47;98146.03;;;12.65;100.00
9077;BME280;4574;51.072;17.174;2023-03-14T11:46:21;98154.97;;;12.71;100.00
9077;BME280;4574;51.072;17.174;2023-03-14T11:48:59;98148.63;;;12.78;100.00
9077;BME280;4574;51.072;17.174;2023-03-14T11:51:34;98153.75;;;12.80;100.00
9077;BME280;4574;51.072;17.174;2023-03-14T11:54:14;98143.06;;;12.86;100.00
9077;BME280;4574;51.072;17.174;2023-03-14T11:56:47;98144.28;;;12.90;100.00
9077;BME280;4574;51.072;17.174;2023-03-14T11:59:22;98137.16;;;12.91;100.00
9077;BME280;4574;51.072;17.174;2023-03-14T12:01:58;98134.28;;;12.99;100.00
9077;BME280;4574;51.072;17.174;2023-03-14T12:04:40;98136.69;;;13.00;100.00
9077;BME280;4574;51.072;17.174;2023-03-14T12:07:19;98155.72;;;12.97;100.00
9077;BME280;4574;51.072;17.174;2023-03-14T12:09:49;98137.34;;;12.89;100.00
9077;BME280;4574;51.072;17.174;2023-03-14T12:12:22;98140.00;;;12.89;100.00
9077;BME280;4574;51.072;17.174;2023-03-14T12:14:55;98144.13;;;12.92;100.00
9077;BME280;4574;51.072;17.174;2023-03-14T12:17:34;98141.63;;;12.90;100.00
9077;BME280;4574;51.072;17.174;2023-03-14T12:20:10;98143.91;;;12.87;100.00
9077;BME280;4574;51.072;17.174;2023-03-14T12:22:44;98142.03;;;12.87;100.00
9077;BME280;4574;51.072;17.174;2023-03-14T12:25:16;98131.50;;;12.74;100.00
9077;BME280;4574;51.072;17.174;2023-03-14T12:27:49;98129.25;;;12.78;100.00
9077;BME280;4574;51.072;17.174;2023-03-14T12:30:33;98128.22;;;12.79;100.00
9077;BME280;4574;51.072;17.174;2023-03-14T12:42:02;98127.81;;;12.75;100.00
9077;BME280;4574;51.072;17.174;2023-03-14T12:47:47;98131.91;;;12.78;100.00
9077;BME280;4574;51.072;17.174;2023-03-14T12:50:31;98114.72;;;12.74;100.00
9077;BME280;4574;51.072;17.174;2023-03-14T12:56:09;98126.97;;;12.81;100.00
9077;BME280;4574;51.072;17.174;2023-03-14T12:58:44;98125.50;;;12.85;100.00
9077;BME280;4574;51.072;17.174;2023-03-14T13:01:18;98115.91;;;12.84;100.00
9077;BME280;4574;51.072;17.174;2023-03-14T13:03:50;98121.84;;;12.86;100.00
9077;BME280;4574;51.072;17.174;2023-03-14T13:06:44;98119.00;;;12.81;100.00
9077;BME280;4574;51.072;17.174;2023-03-14T13:12:29;98115.91;;;12.91;100.00
9077;BME280;4574;51.072;17.174;2023-03-14T13:15:11;98113.66;;;12.94;100.00
9077;BME280;4574;51.072;17.174;2023-03-14T13:17:42;98115.50;;;12.94;100.00
9077;BME280;4574;51.072;17.174;2023-03-14T13:20:16;98113.88;;;12.93;100.00
9077;BME280;4574;51.072;17.174;2023-03-14T13:22:48;98106.88;;;12.98;100.00
9077;BME280;4574;51.072;17.174;2023-03-14T13:25:17;98109.59;;;12.92;100.00
9077;BME280;4574;51.072;17.174;2023-03-14T13:27:51;98113.03;;;12.92;100.00
9077;BME280;4574;51.072;17.174;2023-03-14T13:30:24;98105.09;;;12.92;100.00
9077;BME280;4574;51.072;17.174;2023-03-14T13:32:54;98097.91;;;12.99;100.00
9077;BME280;4574;51.072;17.174;2023-03-14T13:35:25;98103.38;;;13.04;100.00
9077;BME280;4574;51.072;17.174;2023-03-14T13:37:57;98101.38;;;13.00;100.00
9077;BME280;4574;51.072;17.174;2023-03-14T13:40:38;98105.69;;;12.94;100.00
9077;BME280;4574;51.072;17.174;2023-03-14T13:43:15;98104.06;;;12.93;100.00